Time;durP1;ratioP1;P1;durP2;ratioP2;P2;SDS_P1;SDS_P2;PMS_P1;PMS_P2;Temp;Humidity;BMP_temperature;BMP_pressure;BME280_temperature;BME280_humidity;BME280_pressure;Samples;Min_cycle;Max_cycle;Signal;HPM_P1;HPM_P2
2022/02/25 00:01:06;;;;;;;8.85;0.60;;;4.10;99.90;;;2.48;100.00;100343.00;4873887;28;20028;-82
2022/02/25 00:03:33;;;;;;;4.38;0.65;;;4.10;99.90;;;2.47;100.00;100352.56;4871142;28;20125;-82
2022/02/25 00:06:00;;;;;;;6.65;0.50;;;4.10;99.90;;;2.42;100.00;100357.00;4867066;28;20059;-82
2022/02/25 00:08:26;;;;;;;5.10;0.60;;;4.00;99.90;;;2.45;100.00;100358.66;4880958;28;20058;-82
2022/02/25 00:10:52;;;;;;;5.03;0.70;;;4.00;99.90;;;2.40;100.00;100371.75;4863628;28;20027;-82
2022/02/25 00:13:23;;;;;;;2.58;0.45;;;4.00;99.90;;;2.40;100.00;100378.69;4860546;28;20027;-83
2022/02/25 00:15:49;;;;;;;4.93;0.70;;;4.00;99.90;;;2.35;100.00;100389.16;4851118;28;20075;-80
2022/02/25 00:18:15;;;;;;;2.15;0.52;;;4.00;99.90;;;2.32;100.00;100388.38;4903628;28;20607;-81
2022/02/25 00:20:41;;;;;;;2.97;0.70;;;3.90;99.90;;;2.26;100.00;100404.91;4864156;28;20391;-81
2022/02/25 00:23:07;;;;;;;3.50;0.70;;;3.90;99.90;;;2.20;100.00;100416.28;4849104;28;20035;-80
2022/02/25 00:25:41;;;;;;;4.15;0.52;;;3.80;99.90;;;2.23;100.00;100423.16;4870195;28;20031;-81
2022/02/25 00:28:07;;;;;;;3.47;0.60;;;3.80;99.90;;;2.20;100.00;100425.78;4855899;28;20027;-81
2022/02/25 00:30:33;;;;;;;2.28;0.68;;;3.80;99.90;;;2.24;100.00;100430.06;4851059;28;20362;-81
2022/02/25 00:32:59;;;;;;;3.60;0.50;;;3.80;99.90;;;2.23;100.00;100430.97;4872981;28;20055;-81
2022/02/25 00:35:25;;;;;;;3.10;0.60;;;3.80;99.90;;;2.22;100.00;100437.88;4851570;28;20042;-81
2022/02/25 00:37:54;;;;;;;5.63;0.68;;;3.80;99.90;;;2.15;100.00;100444.06;4820867;28;20028;-81
2022/02/25 00:40:21;;;;;;;3.67;0.73;;;3.70;99.90;;;2.12;100.00;100459.72;4848399;28;20086;-82
2022/02/25 00:42:48;;;;;;;6.35;0.63;;;3.70;99.90;;;2.08;100.00;100464.97;4872644;28;20100;-81
2022/02/25 00:45:14;;;;;;;4.07;0.60;;;3.70;99.90;;;2.08;100.00;100462.38;4833464;28;20035;-81
2022/02/25 00:47:40;;;;;;;5.47;0.70;;;3.70;99.90;;;2.04;100.00;100469.34;4824858;29;20048;-81
2022/02/25 00:50:08;;;;;;;5.63;1.10;;;;;;;1.99;100.00;100469.44;4857448;28;20061;-82
2022/02/25 00:52:38;;;;;;;9.45;0.82;;;3.60;99.90;;;1.92;100.00;100477.31;4842471;29;20029;-82
2022/02/25 00:55:05;;;;;;;9.65;0.95;;;3.60;99.90;;;1.88;100.00;100473.06;4909840;28;20123;-83
2022/02/25 00:57:31;;;;;;;9.32;0.77;;;3.50;99.90;;;1.74;100.00;100474.13;4878971;28;20090;-81
2022/02/25 01:00:05;;;;;;;7.13;0.60;;;3.40;99.90;;;1.71;100.00;100481.97;4874815;28;20582;-81
2022/02/25 01:02:31;;;;;;;4.75;0.55;;;3.40;99.90;;;1.63;100.00;100484.66;4877244;28;20120;-81
2022/02/25 01:04:58;;;;;;;7.28;0.93;;;3.30;99.90;;;1.60;100.00;100487.31;4871326;28;20373;-81
2022/02/25 01:07:24;;;;;;;6.70;1.08;;;3.30;99.90;;;1.55;100.00;100483.88;4867245;28;20039;-80
2022/02/25 01:09:55;;;;;;;5.72;0.60;;;3.20;99.90;;;1.52;100.00;100486.53;4859534;28;20032;-81
2022/02/25 01:12:21;;;;;;;5.20;0.65;;;3.20;99.90;;;1.48;100.00;100489.19;4848845;28;20031;-80
2022/02/25 01:14:47;;;;;;;6.60;0.55;;;3.10;99.90;;;1.44;100.00;100496.16;4886689;28;20527;-83
2022/02/25 01:17:13;;;;;;;6.95;0.90;;;3.10;99.90;;;1.43;100.00;100497.03;4879701;28;20065;-82
2022/02/25 01:19:39;;;;;;;7.18;1.30;;;3.10;99.90;;;1.42;100.00;100497.91;4890437;28;20061;-83
2022/02/25 01:22:13;;;;;;;3.55;0.50;;;3.10;99.90;;;1.38;100.00;100499.72;4858327;28;20063;-80
2022/02/25 01:24:41;;;;;;;3.30;0.60;;;3.00;99.90;;;1.35;100.00;100507.50;4837905;28;20073;-82
2022/02/25 01:27:08;;;;;;;4.47;0.43;;;3.00;99.90;;;1.31;100.00;100513.59;4855005;28;20045;-81
2022/02/25 01:29:39;;;;;;;3.97;0.50;;;3.00;99.90;;;1.33;100.00;100513.59;4892598;28;20028;-81
2022/02/25 01:32:05;;;;;;;1.13;0.40;;;3.00;99.90;;;1.29;100.00;100517.94;4863239;28;20035;-80
2022/02/25 01:34:31;;;;;;;3.75;0.68;;;2.90;99.90;;;1.27;100.00;100524.03;4849679;28;20066;-81
2022/02/25 01:36:57;;;;;;;3.92;0.82;;;2.90;99.90;;;1.23;100.00;100518.91;4839247;28;20073;-82
2022/02/25 01:39:23;;;;;;;4.95;0.68;;;2.90;99.90;;;1.30;100.00;100524.88;4834407;28;20062;-81
2022/02/25 01:41:55;;;;;;;2.17;0.60;;;3.00;99.90;;;1.39;100.00;100529.09;4860431;28;20046;-82
2022/02/25 01:44:24;;;;;;;1.75;0.68;;;3.00;99.90;;;1.45;100.00;100523.84;4861977;28;20040;-82
2022/02/25 01:46:59;;;;;;;4.13;0.90;;;3.10;99.90;;;1.46;100.00;100524.69;4832964;28;20043;-82
2022/02/25 01:49:26;;;;;;;7.60;1.00;;;3.10;99.90;;;1.51;100.00;100535.84;4865466;28;20043;-82
2022/02/25 01:52:03;;;;;;;2.75;0.70;;;3.10;99.90;;;1.50;100.00;100536.75;4848208;28;20663;-81
2022/02/25 01:54:31;;;;;;;2.33;0.88;;;3.20;99.90;;;1.50;100.00;100537.59;4851326;28;20548;-82
2022/02/25 01:56:59;;;;;;;4.05;0.93;;;3.10;99.90;;;1.48;100.00;100528.97;4878355;28;20125;-82
2022/02/25 01:59:33;;;;;;;5.97;1.20;;;3.10;99.90;;;1.48;100.00;100541.94;4828943;28;20114;-82
2022/02/25 02:01:59;;;;;;;11.85;1.10;;;3.10;99.90;;;1.44;100.00;100541.13;4842626;28;20530;-81
2022/02/25 02:04:26;;;;;;;7.22;1.10;;;3.10;99.90;;;1.40;100.00;100539.47;4869480;28;20125;-82
2022/02/25 02:06:58;;;;;;;9.43;1.17;;;3.10;99.90;;;1.40;100.00;100544.66;4824500;28;20043;-81
2022/02/25 02:09:24;;;;;;;7.95;0.93;;;3.10;99.90;;;1.39;100.00;100542.91;4886647;28;20034;-83
2022/02/25 02:11:53;;;;;;;7.45;1.10;;;3.10;99.90;;;1.38;100.00;100550.72;4913568;23;20044;-81
2022/02/25 02:14:30;;;;;;;9.40;1.10;;;3.10;99.90;;;1.37;100.00;100551.59;4839853;28;20027;-81
2022/02/25 02:16:58;;;;;;;8.13;1.30;;;3.10;99.90;;;1.33;100.00;100550.78;4903270;28;20101;-80
2022/02/25 02:19:33;;;;;;;7.45;1.00;;;3.00;99.90;;;1.29;100.00;100563.78;4884424;28;20492;-80
2022/02/25 02:21:59;;;;;;;9.50;0.90;;;3.00;99.90;;;1.27;100.00;100574.19;4865954;28;20041;-80
2022/02/25 02:24:26;;;;;;;7.43;1.00;;;2.90;99.90;;;1.28;100.00;100575.91;4871262;28;20524;-80
2022/02/25 02:27:01;;;;;;;7.55;1.20;;;2.90;99.90;;;1.27;100.00;100581.97;4879050;28;20050;-81
2022/02/25 02:29:28;;;;;;;6.83;1.17;;;2.90;99.90;;;1.25;100.00;100577.66;4862887;28;20060;-81
2022/02/25 02:31:54;;;;;;;8.57;1.17;;;2.90;99.90;;;1.23;100.00;100581.16;4848901;28;20283;-80
2022/02/25 02:34:20;;;;;;;5.07;1.20;;;2.90;99.90;;;1.23;100.00;100575.09;4910966;28;20038;-80
2022/02/25 02:36:52;;;;;;;8.57;1.60;;;2.90;99.90;;;1.20;100.00;100575.13;4885511;28;20815;-81
2022/02/25 02:39:18;;;;;;;9.05;1.65;;;2.90;99.90;;;1.14;100.00;100570.84;4868272;28;20035;-80
2022/02/25 02:41:44;;;;;;;12.07;2.00;;;2.80;99.90;;;1.12;100.00;100584.72;4892330;28;20030;-80
2022/02/25 02:44:10;;;;;;;14.05;1.60;;;2.80;99.90;;;1.16;100.00;100591.59;4882837;28;20049;-80
2022/02/25 02:46:37;;;;;;;9.05;1.80;;;2.90;99.90;;;1.18;100.00;100592.44;4838720;28;20036;-80
2022/02/25 02:49:08;;;;;;;8.77;1.67;;;2.80;99.90;;;1.17;100.00;100598.53;4871887;28;20024;-82
2022/02/25 02:51:35;;;;;;;13.82;2.33;;;2.80;99.90;;;1.16;100.00;100599.38;4854390;28;20043;-81
2022/02/25 02:54:02;;;;;;;8.35;1.75;;;2.80;99.90;;;1.16;100.00;100608.00;4867175;28;20527;-81
2022/02/25 02:56:28;;;;;;;11.32;1.98;;;2.80;99.90;;;1.23;100.00;100609.69;4846747;28;20039;-81
2022/02/25 02:59:02;;;;;;;19.02;2.00;;;2.90;99.90;;;1.31;100.00;100609.59;4829445;28;20226;-80
2022/02/25 03:01:31;;;;;;;11.65;2.30;;;3.00;99.90;;;1.40;100.00;100606.91;4820098;28;20025;-79
2022/02/25 03:04:05;;;;;;;17.77;2.67;;;3.00;99.90;;;1.47;100.00;100609.41;4845275;28;20602;-81
2022/02/25 03:06:31;;;;;;;14.15;2.10;;;3.10;99.90;;;1.56;100.00;100615.38;4846441;28;20538;-80
2022/02/25 03:08:58;;;;;;;8.55;1.75;;;3.20;99.90;;;1.62;100.00;100601.47;4849044;28;20118;-80
2022/02/25 03:11:24;;;;;;;18.77;2.50;;;3.30;99.90;;;1.70;100.00;100603.97;4862017;28;20636;-81
2022/02/25 03:13:58;;;;;;;8.60;2.08;;;3.30;99.90;;;1.70;100.00;100604.81;4882886;28;20078;-81
2022/02/25 03:16:24;;;;;;;12.50;1.92;;;3.30;99.90;;;1.67;100.00;100606.63;4852584;28;20039;-82
2022/02/25 03:18:51;;;;;;;13.25;2.03;;;3.30;99.90;;;1.60;100.00;100605.84;4888411;28;20028;-80
2022/02/25 03:21:20;;;;;;;8.23;2.00;;;3.20;99.90;;;1.53;100.00;100618.00;4913932;28;20036;-81
2022/02/25 03:23:49;;;;;;;13.73;1.90;;;3.20;99.90;;;1.48;100.00;100612.00;4855615;28;20027;-81
2022/02/25 03:26:15;;;;;;;20.42;2.85;;;3.10;99.90;;;1.45;100.00;100625.03;4871355;28;20050;-81
2022/02/25 03:28:40;;;;;;;12.60;1.65;;;3.10;99.90;;;1.43;100.00;100625.03;4839648;28;20661;-82
2022/02/25 03:31:06;;;;;;;13.60;2.05;;;3.10;99.90;;;1.39;100.00;100638.91;4866600;28;20079;-80
2022/02/25 03:33:32;;;;;;;11.85;2.08;;;3.10;99.90;;;1.40;100.00;100644.97;4862515;28;20544;-81
2022/02/25 03:36:04;;;;;;;8.50;1.70;;;3.10;99.90;;;1.34;100.00;100635.53;4882681;28;20586;-81
2022/02/25 03:38:29;;;;;;;10.93;1.60;;;3.10;99.90;;;1.32;100.00;100641.56;4883265;28;20811;-80
2022/02/25 03:40:55;;;;;;;9.85;1.70;;;3.00;99.90;;;1.30;100.00;100644.19;4876056;28;20038;-80
2022/02/25 03:43:21;;;;;;;10.48;1.77;;;3.00;99.90;;;1.31;100.00;100648.50;4838812;28;20032;-82
2022/02/25 03:45:47;;;;;;;9.65;1.77;;;3.00;99.90;;;1.32;100.00;100650.25;4866979;28;20034;-82
2022/02/25 03:48:13;;;;;;;13.40;1.85;;;3.00;99.90;;;1.29;100.00;100664.97;4883838;28;20060;-82
2022/02/25 03:50:46;;;;;;;9.10;1.63;;;3.00;99.90;;;1.29;100.00;100664.97;4851387;28;20033;-82
2022/02/25 03:53:12;;;;;;;12.63;2.22;;;3.00;99.90;;;1.33;100.00;100661.47;4864776;28;20069;-81
2022/02/25 03:55:38;;;;;;;18.42;2.10;;;3.00;99.90;;;1.39;100.00;100680.44;4849575;28;20118;-82
2022/02/25 03:58:04;;;;;;;18.92;2.42;;;3.10;99.90;;;1.50;100.00;100676.88;4891611;28;21936;-81
2022/02/25 04:00:37;;;;;;;9.93;1.85;;;3.10;99.90;;;1.60;100.00;100675.91;4856497;28;20032;-83
2022/02/25 04:03:04;;;;;;;10.32;2.08;;;3.20;99.90;;;1.68;100.00;100675.81;4899649;28;20531;-82
2022/02/25 04:05:30;;;;;;;13.10;2.15;;;3.20;99.90;;;1.73;100.00;100680.09;4909023;28;20036;-82
2022/02/25 04:07:56;;;;;;;18.35;2.80;;;3.30;99.90;;;1.78;100.00;100680.88;4846282;28;20079;-82
2022/02/25 04:10:33;;;;;;;15.27;2.88;;;3.40;99.90;;;1.84;100.00;100678.22;4840629;28;20567;-82
2022/02/25 04:12:59;;;;;;;11.63;2.88;;;3.40;99.90;;;1.87;100.00;100679.06;4843761;28;20432;-83
2022/02/25 04:15:32;;;;;;;18.13;3.10;;;3.50;99.90;;;1.90;100.00;100690.28;4911842;28;20038;-81
2022/02/25 04:17:58;;;;;;;20.92;3.60;;;3.50;99.90;;;1.92;100.00;100685.91;4846172;28;20040;-82
2022/02/25 04:20:24;;;;;;;14.93;3.00;;;3.50;99.90;;;1.90;100.00;100681.63;4891489;28;20446;-82
2022/02/25 04:22:50;;;;;;;19.58;3.47;;;3.50;99.90;;;1.91;100.00;100685.94;4865089;28;20530;-83
2022/02/25 04:25:16;;;;;;;21.33;3.47;;;3.50;99.90;;;1.90;100.00;100684.22;4858280;28;20035;-81
2022/02/25 04:27:47;;;;;;;18.17;3.47;;;3.50;99.90;;;1.92;100.00;100687.66;4849432;28;20487;-81
2022/02/25 04:30:13;;;;;;;17.20;4.60;;;3.50;99.90;;;1.87;100.00;100684.25;4892276;28;20032;-80
2022/02/25 04:32:39;;;;;;;15.07;3.30;;;3.50;99.90;;;1.85;100.00;100684.28;4852604;28;20031;-80
2022/02/25 04:35:06;;;;;;;21.88;3.60;;;3.50;99.90;;;1.85;100.00;100690.31;4831976;29;20468;-80
2022/02/25 04:37:32;;;;;;;24.20;3.72;;;3.50;99.90;;;1.88;100.00;100685.97;4861616;28;20020;-80
2022/02/25 04:40:07;;;;;;;21.98;3.40;;;3.50;99.90;;;1.90;100.00;100686.81;4864410;28;20151;-82
2022/02/25 04:42:34;;;;;;;20.27;3.42;;;3.50;99.90;;;1.88;100.00;100692.03;4902741;28;20106;-80
2022/02/25 04:45:00;;;;;;;24.95;3.63;;;3.50;99.90;;;1.89;100.00;100698.94;4899732;28;20023;-80
2022/02/25 04:47:35;;;;;;;31.33;3.97;;;3.50;99.90;;;1.87;100.00;100698.09;4876872;28;20109;-80
2022/02/25 04:50:02;;;;;;;14.60;3.45;;;3.40;99.90;;;1.83;100.00;100692.06;4875045;28;20032;-80
2022/02/25 04:52:28;;;;;;;11.13;2.70;;;3.40;99.90;;;1.76;100.00;100700.81;4858520;28;20027;-80
2022/02/25 04:55:03;;;;;;;14.48;3.45;;;3.40;99.90;;;1.70;100.00;100706.06;4877841;28;20040;-80
2022/02/25 04:57:29;;;;;;;21.20;3.63;;;3.40;99.90;;;1.65;100.00;100707.88;4883093;28;20031;-82
2022/02/25 04:59:55;;;;;;;20.52;3.92;;;3.30;99.90;;;1.59;100.00;100706.16;4838225;28;20027;-80
2022/02/25 05:02:30;;;;;;;17.70;3.58;;;3.30;99.90;;;1.57;100.00;100717.44;4847138;28;20034;-80
2022/02/25 05:04:56;;;;;;;22.05;3.67;;;3.30;99.90;;;1.60;100.00;100720.03;4894829;28;20528;-80
2022/02/25 05:07:22;;;;;;;22.25;3.75;;;3.30;99.90;;;1.69;100.00;100729.47;4874534;28;20039;-81
2022/02/25 05:09:48;;;;;;;14.93;3.33;;;3.30;99.90;;;1.72;100.00;100726.81;4842525;28;20542;-80
2022/02/25 05:12:19;;;;;;;21.15;3.75;;;3.40;99.90;;;1.80;100.00;100727.63;4892386;28;20038;-80
2022/02/25 05:20:25;;;;;;;20.30;3.03;;;3.30;99.90;;;1.62;100.00;100739.00;4856566;28;20510;-80
2022/02/25 05:23:02;;;;;;;23.38;4.18;;;3.30;99.90;;;1.59;100.00;100744.25;4863377;28;20487;-81
2022/02/25 05:25:31;;;;;;;18.95;4.03;;;3.30;99.90;;;1.62;100.00;100749.41;4884472;28;20198;-80
2022/02/25 05:28:03;;;;;;;30.83;3.60;;;3.30;99.90;;;1.69;100.00;100756.28;4884970;28;20059;-80
2022/02/25 05:30:29;;;;;;;22.58;3.38;;;3.40;99.90;;;1.78;100.00;100737.16;4859815;28;20528;-81
2022/02/25 05:32:56;;;;;;;24.42;3.88;;;3.40;99.90;;;1.88;100.00;100749.16;4845192;28;20455;-80
2022/02/25 05:35:24;;;;;;;16.35;3.20;;;3.50;99.90;;;1.97;100.00;100745.63;4861804;28;20027;-81
2022/02/25 05:37:55;;;;;;;22.98;3.08;;;3.60;99.90;;;2.00;100.00;100743.81;4860161;28;20026;-80
2022/02/25 05:40:22;;;;;;;19.88;3.42;;;3.60;99.90;;;2.07;100.00;100743.75;4845541;28;20039;-81
2022/02/25 05:42:49;;;;;;;18.88;3.20;;;3.60;99.90;;;2.11;100.00;100748.03;4837716;29;20473;-80
2022/02/25 05:45:16;;;;;;;19.67;3.15;;;3.70;99.90;;;2.12;100.00;100748.03;4848969;28;20151;-80
2022/02/25 05:47:51;;;;;;;25.58;3.92;;;;;;;2.21;100.00;100765.25;4847230;28;20038;-80
2022/02/25 05:50:19;;;;;;;15.27;2.92;;;3.80;99.90;;;2.24;100.00;100762.59;4876451;28;20054;-80
2022/02/25 05:52:53;;;;;;;15.60;3.45;;;3.80;99.90;;;2.25;100.00;100761.75;4904964;28;20055;-80
2022/02/25 05:55:23;;;;;;;27.02;3.60;;;3.80;99.90;;;2.28;100.00;100777.28;4877303;28;20033;-80
2022/02/25 05:57:58;;;;;;;17.73;3.10;;;3.90;99.90;;;2.31;100.00;100777.28;4843245;28;20097;-81
2022/02/25 06:00:26;;;;;;;22.33;2.95;;;3.90;99.90;;;2.36;100.00;100790.19;4866942;28;20066;-79
2022/02/25 06:02:52;;;;;;;15.45;3.13;;;3.90;99.90;;;2.39;100.00;100785.81;4862974;28;20035;-81
2022/02/25 06:05:25;;;;;;;18.80;3.45;;;3.90;99.90;;;2.40;100.00;100786.69;4875942;28;23311;-80
2022/02/25 06:07:51;;;;;;;24.10;3.17;;;4.00;99.90;;;2.42;100.00;100784.94;4881620;28;20070;-80
2022/02/25 06:10:17;;;;;;;21.23;3.13;;;4.00;99.90;;;2.46;100.00;100787.47;4884287;28;20034;-80
2022/02/25 06:12:43;;;;;;;20.83;2.88;;;4.00;99.90;;;2.46;100.00;100782.28;4857620;28;20058;-80
2022/02/25 06:15:10;;;;;;;21.10;2.67;;;4.10;99.90;;;2.53;100.00;100784.78;4911699;28;20026;-80
2022/02/25 06:17:47;;;;;;;18.33;2.92;;;4.10;99.90;;;2.55;99.70;100789.09;4831933;28;20361;-80
2022/02/25 06:20:23;;;;;;;21.67;3.35;;;4.10;99.90;;;2.56;99.77;100783.00;4896768;28;20023;-80
2022/02/25 06:22:49;;;;;;;20.20;3.00;;;4.10;99.90;;;2.59;99.20;100789.91;4840066;28;20043;-80
2022/02/25 06:25:16;;;;;;;25.95;3.10;;;4.20;99.90;;;2.64;99.04;100788.97;4848233;28;20035;-80
2022/02/25 06:27:50;;;;;;;17.33;3.08;;;4.20;99.90;;;2.63;98.85;100800.22;4857765;28;20039;-81
2022/02/25 06:30:16;;;;;;;16.08;2.75;;;4.20;99.90;;;2.67;99.10;100788.91;4829595;28;20054;-81
2022/02/25 06:32:55;;;;;;;;;;;;;;;;;;;;;
2022/02/25 06:35:26;;;;;;;22.08;3.63;;;4.30;99.90;;;2.71;98.91;100807.09;4824196;28;20163;-79
2022/02/25 06:37:53;;;;;;;19.27;4.57;;;4.30;99.90;;;2.72;98.55;100803.59;4859398;28;20532;-80
2022/02/25 06:40:28;;;;;;;26.05;2.70;;;4.30;99.90;;;2.74;98.97;100813.09;4875170;28;20031;-80
2022/02/25 06:42:54;;;;;;;13.52;2.83;;;4.30;99.90;;;2.71;99.22;100814.91;4908859;28;20041;-80
2022/02/25 06:45:21;;;;;;;21.15;3.28;;;4.30;99.90;;;2.75;98.80;100821.78;4861431;28;20031;-79
2022/02/25 06:47:56;;;;;;;13.68;3.22;;;4.30;99.90;;;2.75;98.77;100814.84;4874383;28;20574;-81
2022/02/25 06:50:22;;;;;;;27.73;4.13;;;4.30;99.90;;;2.80;98.91;100819.97;4863849;28;20030;-80
2022/02/25 06:52:48;;;;;;;17.20;2.90;;;4.30;99.90;;;2.80;98.63;100825.19;4870629;28;20031;-80
2022/02/25 06:55:25;;;;;;;16.20;3.50;;;4.40;99.90;;;2.87;98.11;100813.78;4865322;28;20134;-80
2022/02/25 06:57:51;;;;;;;25.42;3.35;;;4.40;99.90;;;2.97;98.34;100820.59;4834971;28;20524;-80
2022/02/25 07:00:21;;;;;;;23.58;3.60;;;4.40;99.90;;;3.03;97.82;100828.31;4854850;28;20036;-80
2022/02/25 07:02:52;;;;;;;24.65;3.65;;;4.50;99.90;;;2.99;97.25;100829.25;4883511;28;20117;-79
2022/02/25 07:05:30;;;;;;;22.02;3.50;;;4.50;99.90;;;3.06;96.83;100830.03;4886951;28;20041;-81
2022/02/25 07:07:56;;;;;;;17.55;2.60;;;4.50;99.90;;;3.23;96.73;100828.03;4909566;28;20150;-81
2022/02/25 07:10:22;;;;;;;20.65;4.20;;;4.60;99.90;;;3.12;96.35;100842.94;4835888;28;20042;-80
2022/02/25 07:12:48;;;;;;;15.82;3.00;;;4.60;99.90;;;3.08;96.32;100849.06;4845112;28;20498;-80
2022/02/25 07:15:20;;;;;;;22.20;2.80;;;4.60;99.90;;;3.10;96.13;100851.66;4870748;28;20378;-82
2022/02/25 07:17:46;;;;;;;18.65;3.50;;;4.60;99.90;;;3.11;96.48;100848.16;4866479;28;20145;-80
2022/02/25 07:20:12;;;;;;;19.75;2.58;;;4.70;99.90;;;3.18;96.68;100855.88;4891664;28;20019;-81
2022/02/25 07:22:48;;;;;;;14.90;2.45;;;4.70;99.90;;;3.18;96.08;100862.84;4881120;28;20034;-79
2022/02/25 07:25:15;;;;;;;11.75;2.33;;;4.70;99.90;;;3.17;95.95;100859.34;4866860;28;20110;-81
2022/02/25 07:27:42;;;;;;;22.27;3.33;;;4.70;99.90;;;3.17;95.85;100868.91;4831619;28;20043;-80
2022/02/25 07:30:10;;;;;;;13.57;2.85;;;4.70;99.90;;;3.16;95.70;100872.41;4844031;28;20027;-81
2022/02/25 07:32:43;;;;;;;17.70;3.55;;;4.70;99.90;;;3.11;96.08;100876.78;4867771;28;20062;-80
2022/02/25 07:35:11;;;;;;;20.30;3.80;;;4.70;99.90;;;3.12;96.26;100886.31;4864599;28;20179;-80
2022/02/25 07:37:47;;;;;;;20.20;3.05;;;4.70;99.90;;;3.13;96.46;100888.88;4900323;28;20039;-81
2022/02/25 07:40:16;;;;;;;21.45;3.50;;;4.70;99.90;;;3.17;96.18;100894.91;4912925;28;20032;-81
2022/02/25 07:42:49;;;;;;;18.40;2.70;;;4.70;99.90;;;3.16;95.96;100896.66;4855796;28;20139;-80
2022/02/25 07:45:15;;;;;;;17.00;2.45;;;4.70;99.90;;;3.17;96.06;100894.91;4877419;28;20395;-80
2022/02/25 07:47:41;;;;;;;21.38;3.40;;;4.70;99.90;;;3.17;95.86;100897.53;4898570;28;20047;-80
2022/02/25 07:50:18;;;;;;;17.83;2.45;;;4.70;99.90;;;3.25;95.81;100906.09;4879030;28;20118;-81
2022/02/25 07:52:44;;;;;;;19.08;3.08;;;4.80;99.90;;;3.28;95.43;100909.53;4894184;28;20047;-79
2022/02/25 07:55:12;;;;;;;18.05;3.30;;;4.80;99.90;;;3.38;95.47;100904.19;4880293;28;20578;-80
2022/02/25 07:57:43;;;;;;;12.48;2.30;;;4.90;99.90;;;3.39;95.06;100901.56;4838260;28;20102;-80
2022/02/25 08:00:15;;;;;;;14.93;2.35;;;4.90;99.90;;;3.45;94.29;100901.47;4873474;28;20827;-81
2022/02/25 08:02:50;;;;;;;16.38;2.63;;;5.00;99.90;;;3.60;94.14;100912.53;4846521;28;20039;-81
2022/02/25 08:05:17;;;;;;;25.63;3.35;;;5.00;99.90;;;3.56;93.58;100903.91;4873576;28;20106;-81
2022/02/25 08:07:44;;;;;;;17.63;2.40;;;5.10;99.90;;;3.68;93.44;100910.69;4874674;28;20163;-81
2022/02/25 08:10:19;;;;;;;19.60;2.88;;;5.20;99.90;;;3.82;92.96;100916.56;4864711;28;20042;-81
2022/02/25 08:12:45;;;;;;;14.93;2.65;;;5.30;99.90;;;4.02;92.20;100913.63;4855046;28;20043;-81
2022/02/25 08:15:12;;;;;;;22.08;3.13;;;5.40;99.90;;;4.12;91.55;100924.75;4878282;28;20027;-79
2022/02/25 08:17:41;;;;;;;15.52;2.67;;;5.50;99.90;;;4.32;90.78;100916.59;4874479;28;20051;-81
2022/02/25 08:20:11;;;;;;;13.35;2.55;;;5.60;99.90;;;4.39;90.04;100914.75;4853512;28;20126;-82
2022/02/25 08:22:37;;;;;;;24.42;3.35;;;5.70;99.90;;;4.50;89.71;100920.59;4880586;28;20062;-82
2022/02/25 08:25:04;;;;;;;12.80;2.83;;;5.80;99.90;;;4.52;88.67;100924.91;4884158;28;20067;-82
2022/02/25 08:27:36;;;;;;;19.35;2.17;;;5.80;99.90;;;4.50;88.31;100925.81;4879139;28;20039;-81
2022/02/25 08:30:14;;;;;;;17.83;2.85;;;5.90;99.90;;;4.65;87.72;100933.34;4868766;28;20530;-81
2022/02/25 08:32:46;;;;;;;16.45;2.88;;;5.90;99.90;;;4.73;86.97;100926.25;4829942;28;20047;-80
2022/02/25 08:35:14;;;;;;;13.63;2.20;;;6.00;99.90;;;4.94;86.42;100935.38;4876408;28;20035;-80
2022/02/25 08:37:48;;;;;;;15.88;2.55;;;6.60;99.90;;;7.38;80.79;100922.38;4875780;28;20062;-81
2022/02/25 08:40:15;;;;;;;9.68;2.30;;;7.70;99.90;;;8.88;74.53;100915.72;4881892;28;20093;-81
2022/02/25 08:42:49;;;;;;;16.38;2.22;;;8.90;99.90;;;9.55;70.29;100897.38;4888598;28;20520;-84
2022/02/25 08:45:16;;;;;;;12.18;2.58;;;9.60;99.90;;;8.90;69.38;100832.44;4842074;28;20091;-81
2022/02/25 08:47:44;;;;;;;13.15;2.22;;;9.80;99.90;;;9.11;69.17;100849.16;4843336;28;20040;-82
2022/02/25 08:50:16;;;;;;;17.58;2.13;;;10.00;99.90;;;9.49;67.91;100928.28;4855676;28;20035;-81
2022/02/25 08:52:46;;;;;;;17.30;2.33;;;10.50;99.90;;;9.82;65.82;100899.78;4827449;28;20052;-82
2022/02/25 08:55:13;;;;;;;13.95;2.55;;;10.60;99.90;;;9.27;66.20;100902.84;4866640;28;20039;-80
2022/02/25 08:57:45;;;;;;;19.98;3.38;;;;;;;9.98;65.64;100894.78;4863170;28;20032;-80
2022/02/25 09:00:24;;;;;;;13.63;2.38;;;11.00;99.90;;;10.36;63.54;100911.59;4896899;28;20035;-81
2022/02/25 09:02:52;;;;;;;11.55;2.33;;;11.30;99.90;;;10.46;62.30;100943.66;4834823;28;20131;-83
2022/02/25 09:05:21;;;;;;;11.23;2.80;;;11.60;99.90;;;10.79;61.50;100915.00;4846245;28;20127;-81
2022/02/25 09:07:54;;;;;;;17.17;2.80;;;11.80;99.90;;;10.85;60.31;100941.06;4830685;28;20112;-80
2022/02/25 09:10:22;;;;;;;18.45;2.83;;;11.90;99.90;;;10.77;60.43;100861.53;4856336;28;20027;-81
2022/02/25 09:12:49;;;;;;;15.77;3.83;;;11.90;99.90;;;10.76;60.62;100909.03;4879933;28;20027;-81
2022/02/25 09:15:26;;;;;;;16.27;2.30;;;11.80;99.90;;;10.51;60.58;100901.34;4816962;28;20019;-81
2022/02/25 09:17:59;;;;;;;13.95;2.30;;;11.80;99.90;;;10.52;60.15;100858.28;4853386;28;20159;-80
2022/02/25 09:20:28;;;;;;;12.95;2.60;;;11.70;99.90;;;10.44;59.85;100869.16;4883856;28;20037;-80
2022/02/25 09:22:54;;;;;;;15.30;2.33;;;11.50;99.90;;;10.24;59.66;100867.38;4840479;28;20028;-81
2022/02/25 09:25:31;;;;;;;16.80;2.90;;;11.30;99.90;;;9.89;61.06;100882.84;4884200;28;22300;-81
2022/02/25 09:28:00;;;;;;;16.15;2.45;;;11.10;99.90;;;9.89;60.99;100880.22;4864088;28;20393;-83
2022/02/25 09:30:34;;;;;;;13.55;2.30;;;10.90;99.90;;;9.81;61.30;100892.84;4847980;28;20674;-80
2022/02/25 09:33:03;;;;;;;10.68;2.53;;;10.60;99.90;;;9.08;62.53;100923.69;4845471;28;20051;-80
2022/02/25 09:35:29;;;;;;;13.93;3.13;;;10.20;99.90;;;8.75;64.35;100921.38;4843376;28;20036;-80
2022/02/25 09:38:00;;;;;;;18.42;2.95;;;9.70;99.90;;;8.09;65.18;100922.78;4852513;28;20027;-81
2022/02/25 09:40:26;;;;;;;17.02;2.83;;;9.40;99.90;;;7.90;65.68;100928.59;4922120;28;20044;-80
2022/02/25 09:42:53;;;;;;;11.90;1.88;;;9.00;99.90;;;7.23;67.46;100935.94;4837569;28;20510;-80
2022/02/25 09:45:30;;;;;;;17.92;2.88;;;8.70;99.90;;;6.72;68.54;100953.94;4859695;28;20027;-81
2022/02/25 09:47:58;;;;;;;19.52;3.13;;;8.30;99.90;;;6.56;70.33;100953.47;4862319;28;20047;-81
2022/02/25 09:50:33;;;;;;;17.00;2.90;;;8.00;99.90;;;6.24;71.73;100956.94;4854905;28;20027;-80
2022/02/25 09:52:59;;;;;;;20.55;3.20;;;7.80;99.90;;;6.06;73.26;100959.97;4898871;28;20062;-81
2022/02/25 09:55:36;;;;;;;15.73;3.03;;;7.70;99.90;;;5.94;73.06;100956.78;4917457;28;20062;-79
2022/02/25 09:58:06;;;;;;;18.17;2.58;;;7.50;99.90;;;5.89;73.45;100958.59;4873100;28;20444;-80
2022/02/25 10:00:38;;;;;;;19.10;2.78;;;7.40;99.90;;;5.90;73.66;100964.69;4868201;28;20828;-80
2022/02/25 10:03:17;;;;;;;13.43;2.20;;;7.40;99.90;;;5.91;72.90;100969.88;4905071;28;20512;-80
2022/02/25 10:05:47;;;;;;;16.15;2.60;;;7.40;99.90;;;6.12;72.91;100967.69;4831350;28;20039;-80
2022/02/25 10:08:23;;;;;;;15.85;2.97;;;7.50;99.90;;;6.28;71.94;100966.38;4875665;28;20047;-79
2022/02/25 10:10:57;;;;;;;16.50;1.95;;;7.50;99.90;;;6.27;71.32;100974.28;4842198;28;20516;-80
2022/02/25 10:13:30;;;;;;;17.52;2.40;;;7.50;99.90;;;6.28;71.78;100974.22;4883885;28;20069;-80
2022/02/25 10:16:08;;;;;;;14.73;2.63;;;7.60;99.90;;;6.62;72.50;100969.91;4857505;28;20023;-81
2022/02/25 10:18:36;;;;;;;20.00;2.95;;;7.90;99.90;;;6.88;71.88;100969.22;4852283;28;20044;-81
2022/02/25 10:21:14;;;;;;;17.88;2.75;;;8.10;99.90;;;7.15;71.25;100968.44;4847073;28;20599;-79
2022/02/25 10:23:45;;;;;;;17.08;2.88;;;8.20;99.90;;;7.18;70.44;100967.50;4857904;28;20064;-81
2022/02/25 10:26:22;;;;;;;15.88;2.80;;;8.30;99.90;;;7.18;69.55;100976.19;4858971;28;20034;-80
2022/02/25 10:28:58;;;;;;;15.38;2.17;;;8.30;99.90;;;7.04;69.38;100986.22;4881491;28;20051;-79
2022/02/25 10:31:32;;;;;;;;;;;8.30;99.90;;;6.92;69.44;100989.16;4864324;28;20019;-79